This is the latest recevied weather packets stored in our database for station/object WC4PEM-9. If no packets are shown the sender has not sent any weather packets the latest 1 day(s).
| Time | Temp. | Humidity | Pressure | Rain* | Wind** | Luminosity | Snow |
|---|---|---|---|---|---|---|---|
| 1777990108 | 25.56° C | 71% | 1015.6 hPa | 0 mm | 1.79 m/s, 109° | - | - |
| 1777989808 | 25.56° C | 70% | 1015.2 hPa | 0 mm | 2.24 m/s, 153° | - | - |
| 1777989730 | 25.56° C | 70% | 1015.5 hPa | 0 mm | 1.79 m/s, 146° | - | - |
| 1777989508 | 25.56° C | 70% | 1015.5 hPa | 0 mm | 1.79 m/s, 146° | - | - |
| 1777989208 | 25.56° C | 72% | 1015.4 hPa | 0 mm | 1.34 m/s, 108° | - | - |
| 1777988908 | 25° C | 72% | 1015.7 hPa | 0 mm | 1.79 m/s, 146° | - | - |
| 1777988608 | 25° C | 72% | 1015.7 hPa | 0 mm | 2.24 m/s, 159° | - | - |
| 1777988491 | 25° C | 73% | 1015.9 hPa | 0 mm | 1.79 m/s, 123° | - | - |
| 1777988308 | 25° C | 73% | 1015.9 hPa | 0 mm | 1.79 m/s, 123° | - | - |
| 1777988008 | 24.44° C | 76% | 1015.9 hPa | 0 mm | 2.24 m/s, 144° | - | - |
| 1777987708 | 24.44° C | 76% | 1015.8 hPa | 0 mm | 1.79 m/s, 175° | - | - |
| 1777987408 | 23.89° C | 78% | 1015.6 hPa | 0 mm | 1.79 m/s, 22° | - | - |
| 1777987108 | 23.89° C | 78% | 1015.5 hPa | 0 mm | 2.24 m/s, 51° | - | - |
| 1777986808 | 23.33° C | 78% | 1015.4 hPa | 0 mm | 1.79 m/s, 117° | - | - |
| 1777986758 | 23.33° C | 82% | 1015.5 hPa | 0 mm | 1.34 m/s, 88° | - | - |
| 1777986508 | 23.33° C | 82% | 1015.5 hPa | 0 mm | 1.34 m/s, 88° | - | - |
| 1777986322 | 22.22° C | 85% | 1015.8 hPa | 0 mm | 0.89 m/s, 121° | - | - |
| 1777986208 | 22.78° C | 82% | 1015.6 hPa | 0 mm | 0.89 m/s, 309° | - | - |
| 1777985908 | 22.22° C | 85% | 1015.8 hPa | 0 mm | 0.89 m/s, 121° | - | - |
| 1777985608 | 21.67° C | 86% | 1015.6 hPa | 0 mm | 1.34 m/s, 265° | - | - |
| 1777985508 | 21.11° C | 88% | 1015.5 hPa | 0 mm | 1.34 m/s, 115° | - | - |
| 1777985308 | 21.11° C | 88% | 1015.5 hPa | 0 mm | 1.34 m/s, 115° | - | - |
| 1777985161 | 20.56° C | 90% | 1015.9 hPa | 0 mm | 0.89 m/s, 30° | - | - |
| 1777985013 | 20° C | 92% | 1015.8 hPa | 0 mm | 0.45 m/s, 64° | - | - |
| 1777985008 | 20.56° C | 90% | 1015.9 hPa | 0 mm | 0.89 m/s, 30° | - | - |
* Rain latest hour (hover to see other rain measurements)
** Current wind speed in m/s (hover to see current wind gust speed)